logo
App data

For The Glory: A Europa Universalis Game

Take up the reigns of your country, guide domestic and foreign policy, navigate thousands of historical events, engage in various struggles and lead your country to prosperity – all in the name of glory!
Store | Hub | SteamDB
Developer: Crystal Empire Games Publisher: Paradox Interactive
Genre: Strategy
Languages: English
Tags: Strategy (28), Grand Strategy (9), Historical (6)
Category: Single-player, Multi-player
Release date: Nov 11, 2009
Price: $9.99
Old userscore: 70% Owners: 20,000 .. 50,000
Followers: 446
Peak concurrent players yesterday: 9
Playtime total: 39:05 (average) 50:58 (median)

Steam Spy is still in beta, so expect major bugs.

Owners data:

Access restricted.

This feature is only available to users with special access rights. Sorry.

If you want to proceed, you need to register or log in first and then back Steam Spy on Patreon. Look for Indie or Pro pledge.

Don't forget to use the same email as on Steam Spy!

Audience in 2 weeks:

Access restricted.

This feature is only available to users with special access rights. Sorry.

If you want to proceed, you need to register or log in first and then back Steam Spy on Patreon. Look for Indie or Pro pledge.

Don't forget to use the same email as on Steam Spy!

Peak daily concurrent players:

CCU data courtesy of SteamDB. Used with permission.

Hourly concurrent players:

YouTube:

The views data is based on top 50 videos uploaded last week. Actual number of views might be more than the number shown.

The displayed number of videos uploaded yesterday is limited to 50, so if there were more videos uploaded, the number will still show 50.

If the game has commonly used word as its name (like "FEAR" or "Volume") its number of Youtube views might be wrong.

Games similar to this one:

# Game Release date
Price
Score rank
(Userscore / Metascore)
Owners
Players
Playtime (Median)
1 Catch Me Jun 11, 2016 $5.99N/A (N/A)0 .. 20,0002.04%04:27 (01:29)
2 Chronostorm: Siberian Border Apr 2, 2009 $0.99N/A (N/A)0 .. 20,0000%00:00 (00:00)
3 Rulers of Nations Jul 16, 2014 $19.99N/A (N/A/63%)0 .. 20,0000%00:00 (00:00)
4 Check vs Mate Aug 16, 2012 $19.99N/A (N/A/69%)20,000 .. 50,0000%00:00 (00:00)
5 Pick a Hero Jun 9, 2016 $1.99N/A (N/A)0 .. 20,0000%00:00 (00:00)
6 NOBUNAGA'S AMBITION: Sphere of Influence Sep 1, 2015 $59.99N/A (N/A/70%)20,000 .. 50,0008.33%00:10 (00:06)
7 Star Hammer: The Vanguard Prophecy Jun 4, 2015 $4.99N/A (N/A/69%)0 .. 20,0000%00:00 (00:00)
8 Steam Squad Jul 28, 2016 $17.99N/A (N/A)0 .. 20,0000%00:00 (00:00)
9 Tank Warfare: Tunisia 1943 May 1, 2017 $39.99N/A (N/A)0 .. 20,0007.69%00:24 (00:08)
10 Attack Heroes Apr 27, 2017 $9.99N/A (N/A)0 .. 20,0000%00:00 (00:00)
11 Battle of the Bulge Sep 17, 2015 $4.89N/A (N/A)0 .. 20,0000%00:00 (00:00)
12 War on Folvos Aug 8, 2014 $0.99N/A (N/A)20,000 .. 50,0000%00:00 (00:00)
13 Clockwork Empires Oct 26, 2016 $29.99N/A (N/A/58%)20,000 .. 50,0000%00:00 (00:00)
14 Beasts Battle Jun 15, 2016 $1.99N/A (N/A)20,000 .. 50,0000%00:00 (00:00)
15 Tank Battle: 1944 Mar 1, 2016 $9.99N/A (N/A)0 .. 20,0000%00:00 (00:00)
16 Enemy Mar 17, 2015 $14.99N/A (N/A)0 .. 20,0000%00:00 (00:00)
17 Spice Road Apr 24, 2014 $19.99N/A (N/A)0 .. 20,0000%00:00 (00:00)
18 Soldiers: Heroes of World War II Jul 3, 2014 $4.99N/A (N/A/77%)100,000 .. 200,0000%00:00 (00:00)
19 Zeus + Poseidon Dec 15, 2016 $9.99N/A (N/A)50,000 .. 100,0001.96%01:03 (00:21)
20 Zombie Wars: Invasion Jan 14, 2016 $2.99N/A (N/A)20,000 .. 50,00010.31%03:39 (03:16)
21 Close Combat - Panthers in the Fog Nov 19, 2012 $9.99N/A (N/A)0 .. 20,0000%00:00 (00:00)
22 Cubesis Aug 22, 2014 $4.99N/A (N/A)0 .. 20,0000%00:00 (00:00)
23 Lords of the Realm Nov 30, 1994 $1.99N/A (N/A)0 .. 20,0000%00:00 (00:00)
24 Frost Jul 5, 2016 $6.99N/A (N/A)0 .. 20,0000%00:00 (00:00)
25 CTU: Counter Terrorism Unit Apr 22, 2016 $4.99N/A (N/A)0 .. 20,0000%00:00 (00:00)
26 Garden Rescue Feb 2, 2015 $3.99N/A (N/A)100,000 .. 200,0000%00:00 (00:00)
27 Pure Chess Grandmaster Edition Sep 9, 2016 $15.99N/A (N/A)0 .. 20,0000%00:00 (00:00)
28 Mosby's Confederacy Nov 19, 2008 $9.99N/A (N/A)0 .. 20,0000%00:00 (00:00)
29 Winds Of Trade Feb 13, 2017 $11.99N/A (N/A)0 .. 20,0000%00:00 (00:00)
30 Special Tactics Apr 26, 2016 $4.99N/A (N/A)0 .. 20,0000%00:00 (00:00)
31 Templar Battleforce Sep 21, 2015 $9.99N/A (N/A)20,000 .. 50,0000%00:00 (00:00)
32 SunAge: Battle for Elysium Dec 15, 2014 $14.99N/A (N/A)0 .. 20,0000%00:00 (00:00)
33 Ninja Cats vs Samurai Dogs Feb 21, 2014 $4.99N/A (N/A)0 .. 20,0000%00:00 (00:00)
34 Ant Queen Jun 15, 2016 $3.99N/A (N/A)0 .. 20,0000%00:00 (00:00)
35 Business Tour - Board Game with Online Multiplayer Jul 27, 2017 FreeN/A (N/A)1,000,000 .. 2,000,0006.04%01:58 (00:58)
36 Defect Jul 28, 2016 $5.99N/A (N/A)0 .. 20,0000%00:00 (00:00)
37 War of the Human Tanks - ALTeR Feb 13, 2015 $12.99N/A (N/A)0 .. 20,0000%00:00 (00:00)
38 Helldorado Apr 30, 2009 $9.99N/A (N/A/65%)20,000 .. 50,0000%00:00 (00:00)
39 Element TD Jan 20, 2017 $0.99N/A (N/A)0 .. 20,0000%00:00 (00:00)
40 MechoEcho May 18, 2016 $9.99N/A (N/A)0 .. 20,0000%00:00 (00:00)
41 Gary Grigsby's War in the East Dec 7, 2010 $23.99N/A (N/A)0 .. 20,00012.5%10:12 (03:24)
42 Defense Zone 3 Ultra HD Dec 14, 2016 $3.99N/A (N/A)20,000 .. 50,0000%00:00 (00:00)
43 Hostile Waters: Antaeus Rising Jan 30, 2014 $2.99N/A (N/A/80%)100,000 .. 200,0000%00:00 (00:00)
44 Drive on Moscow Oct 27, 2016 $4.89N/A (N/A)0 .. 20,0000%00:00 (00:00)
45 Life in Bunker Feb 25, 2016 $15.99N/A (N/A)0 .. 20,0000%00:00 (00:00)
46 Starlight Tactics Apr 7, 2015 $9.99N/A (N/A)0 .. 20,0000%00:00 (00:00)
47 Storm over the Pacific Jun 13, 2014 $9.99N/A (N/A)0 .. 20,0000%00:00 (00:00)
48 Power of Defense Aug 4, 2010 $9.99N/A (N/A)0 .. 20,0000%00:00 (00:00)
49 Race for the Galaxy Jun 27, 2017 $6.99N/A (N/A)20,000 .. 50,0000%00:00 (00:00)
50 Decisive Campaigns: Barbarossa Nov 24, 2015 $19.49N/A (N/A)0 .. 20,0000%00:00 (00:00)
51 Assault Corps 2 Jul 16, 2015 $2.99N/A (N/A)0 .. 20,0000%00:00 (00:00)
52 Deadstone Nov 12, 2014 $7.99N/A (N/A)0 .. 20,0000%00:00 (00:00)
53 LA Cops Mar 13, 2015 $14.99N/A (N/A/45%)20,000 .. 50,0000%00:00 (00:00)
54 Eclipse: New Dawn for the Galaxy Sep 16, 2016 N/AN/A (N/A)0 .. 20,00050%00:02 (00:01)
55 Darknet Jun 8, 2017 $14.99N/A (N/A)0 .. 20,0000%00:00 (00:00)
56 Stalingrad Apr 5, 2005 $4.99N/A (N/A)20,000 .. 50,0000%00:00 (00:00)
57 Machines At War 3 Jul 23, 2014 $14.99N/A (N/A)0 .. 20,0000%00:00 (00:00)
58 Star Ruler Sep 20, 2010 $9.99N/A (N/A)100,000 .. 200,0000%00:00 (00:00)
59 Zombie Riot May 25, 2017 $19.99N/A (N/A)0 .. 20,00016.67%00:08 (00:02)
60 Warhammer 40,000: Armageddon - Da Orks Aug 18, 2016 $4.99N/A (N/A)0 .. 20,00016.67%00:05 (00:01)
61 Jurassic Island: The Dinosaur Zoo Nov 23, 2015 $3.99N/A (N/A)0 .. 20,0000%00:00 (00:00)
62 Flashpoint Campaigns: Red Storm Player's Edition Oct 9, 2013 $14.49N/A (N/A)0 .. 20,0000%00:00 (00:00)
63 ZAMB! Biomutant Extermination Jun 20, 2014 N/AN/A (N/A)0 .. 20,0000%00:00 (00:00)
64 reconquest Dec 16, 2016 $11.99N/A (N/A)0 .. 20,0000%00:00 (00:00)
65 Dungeon Manager ZV Oct 16, 2015 $9.99N/A (N/A)0 .. 20,0000%00:00 (00:00)
66 Desert Law Apr 29, 2005 $2.99N/A (N/A)20,000 .. 50,0000%00:00 (00:00)
67 Battle Academy 2: Eastern Front Sep 12, 2014 $9.99N/A (N/A/78%)0 .. 20,0000%00:00 (00:00)
68 Kohan: Ahriman's Gift Nov 6, 2001 $9.99N/A (N/A/79%)0 .. 20,0000%00:00 (00:00)
69 Codex of Victory Mar 16, 2017 $14.99N/A (N/A)0 .. 20,0000%00:00 (00:00)
70 Little King's Story Aug 5, 2016 $19.99N/A (N/A/62%)0 .. 20,0000%00:00 (00:00)
71 Star Traders: 4X Empires Dec 16, 2014 $9.99N/A (N/A)0 .. 20,0000%00:00 (00:00)
72 Conflicks - Revolutionary Space Battles Nov 5, 2015 $6.99N/A (N/A/63%)0 .. 20,0000%00:00 (00:00)
73 Hidden Dimensions 3 Oct 12, 2016 FreeN/A (N/A)0 .. 20,0000%00:00 (00:00)
74 Viking Saga: New World Nov 5, 2015 $3.99N/A (N/A)0 .. 20,0000%00:00 (00:00)
75 Cuban Missile Crisis: Ice Crusade Jul 29, 2005 $4.99N/A (N/A)20,000 .. 50,0000%00:00 (00:00)
76 Advanced Tactics Gold Aug 15, 2014 $9.89N/A (N/A)0 .. 20,0000%00:00 (00:00)
77 Fray: Reloaded Edition Jun 19, 2012 N/AN/A (N/A/27%)0 .. 20,0000%00:00 (00:00)
78 Children of a Dead Earth Sep 23, 2016 $24.99N/A (N/A)0 .. 20,0000%00:00 (00:00)
79 Sim Junta Aug 18, 2015 $0.49N/A (N/A)0 .. 20,0000%00:00 (00:00)
80 Rooster Teeth vs. Zombiens Dec 19, 2014 N/AN/A (N/A)0 .. 20,0000%00:00 (00:00)
81 Freight Tycoon Inc. Apr 3, 2014 $4.99N/A (N/A)20,000 .. 50,0000%00:00 (00:00)
82 3D Chess Dec 6, 2016 $9.99N/A (N/A)0 .. 20,0000%00:00 (00:00)

Tags over time:

Access restricted.

This feature is only available to users with special access rights. Sorry.

If you want to proceed, you need to register or log in first and then back Steam Spy on Patreon. Look for Indie or Pro pledge.

Don't forget to use the same email as on Steam Spy!

Owners of this game also own:

Access restricted.

This feature is only available to users with special access rights. Sorry.

If you want to proceed, you need to register or log in first and then back Steam Spy on Patreon. Look for Indie or Pro pledge.

Don't forget to use the same email as on Steam Spy!

Playtime distribution:

Access restricted.

This feature is only available to users with special access rights. Sorry.

If you want to proceed, you need to register or log in first and then back Steam Spy on Patreon. Look for Indie or Pro pledge.

Don't forget to use the same email as on Steam Spy!

Playtime (2 weeks):

Access restricted.

This feature is only available to users with special access rights. Sorry.

If you want to proceed, you need to register or log in first and then back Steam Spy on Patreon. Look for Indie or Pro pledge.

Don't forget to use the same email as on Steam Spy!

User reviews:

Login required.

Please register or log in to see this information.